Ontonagon, Michigan
Current Conditions -  °F | °C
As of 3:53 PM on Thursday 23 Oct 2014 (Local Time) from KCMX Reporting Station
Light Rain Light Rain  
Wind Chill: 43°   Ceiling: 1400
Heat Index: 47°   Visibility: 3mi
Dew Point: 44°   Wind: 8mph
Humidity: 90%   Direction: 190°S
Pressure: 29.98"   Gusts: NA
Location:  46.87°N, 89.31°W
Report Text: KCMX 231953Z AUTO 19007KT 3SM -RA BR OVC014 08/07 A2998 RMK AO2 RAB1854 SLP158 P0002 T00830067
Loading
Personal Weather Stations






























Interactive Weather Map New forecast layout! Learn more

10-Day Weather Forecast

Advertisements
Track Severe Weather on mobile